Oceanus — WXAQ — position and weather

sailwx.info

Track history (hours):
 
Tides and Currents Weather Stations Pressure Air Temp Water Temp Dewpoint Dewpoint Depression Visibility Wind Speed Wind Dir Waves Ship Positions

Oceanographic research ship Oceanus (USA)

Detailed information on ship capabilities available from University of Delaware's Ocean Information Center and ARCUS's ALIAS (Arctic Logistics Information and Support) project.

Owner: Oregon State University, Newport, OR. More information available from US FCC via Universal Licensing System.

Last reported at 2020-Sep-24 02:19 UTC. Time now 2020-Sep-24 08:38 UTC.
Position N 37°38' W 123°28'.

Length 54 m; draft 6.1 m.

Type: Other ship. MMSI: 367977000.

Date/timePositionNaut miles runAvg speedWind from/ knotsBaromVisibWave heightAir tempDewpointWater temp
2020-Sep-24 02:19N 37°38' W 123°28'1 0.1
2020-Sep-23 19:08N 37°38' W 123°27'0 0.1
2020-Sep-23 18:57N 37°38' W 123°27'5 1.0
2020-Sep-23 13:45N 37°36' W 123°33'0 0.0
2020-Sep-23 12:00N 37°36' W 123°33'0 0.0
2020-Sep-23 10:29N 37°36' W 123°33'18 2.1
2020-Sep-23 02:00N 37°25' W 123°15'13 4.2
2020-Sep-22 22:49N 37°32' W 123°29'3 0.5
2020-Sep-22 16:30N 37°35' W 123°27'0 0.1
2020-Sep-22 16:00N 37°35' W 123°27'0 0.1
2020-Sep-22 15:10N 37°35' W 123°27'2 0.6
2020-Sep-22 11:00N 37°37' W 123°29'0 0.1
2020-Sep-22 09:58N 37°37' W 123°29'0 0.0
2020-Sep-22 09:30N 37°37' W 123°29'1 0.8
2020-Sep-22 07:56N 37°38' W 123°28'0 0.0
2020-Sep-22 07:30N 37°38' W 123°28'0 0.1
2020-Sep-22 07:00N 37°38' W 123°28'1 0.6
2020-Sep-22 05:00N 37°38' W 123°30'0 0.3
2020-Sep-22 04:00N 37°38' W 123°30'0 0.1
2020-Sep-22 03:30N 37°38' W 123°30'2 0.5
2020-Sep-21 22:47N 37°40' W 123°31'0 0.0
2020-Sep-21 22:00N 37°40' W 123°31'0 0.1
2020-Sep-21 21:30N 37°40' W 123°31'1 0.9
2020-Sep-21 20:28N 37°41' W 123°30'1 0.2
2020-Sep-21 15:58N 37°41' W 123°31'1 0.4
2020-Sep-21 14:01N 37°41' W 123°32'1 0.3
2020-Sep-21 10:30N 37°42' W 123°31'0 0.0
2020-Sep-21 08:30N 37°42' W 123°31'2 1.9
2020-Sep-21 07:30N 37°43' W 123°33'0 0.0
2020-Sep-21 05:24N 37°43' W 123°33'2 0.5
2020-Sep-21 01:30N 37°44' W 123°35'0 0.0
2020-Sep-21 00:30N 37°44' W 123°35'1 0.2
2020-Sep-20 17:42N 37°45' W 123°35'0 0.1
2020-Sep-20 16:39N 37°45' W 123°35'12 2.0
2020-Sep-20 10:18N 37°57' W 123°41'2011.1
2020-Sep-20 08:30N 38°15' W 123°49'1610.8
2020-Sep-20 07:00N 38°31' W 123°56'1211.5
2020-Sep-20 06:00N 38°41' W 124°02'6389.5
2020-Sep-20 06:00N 38°36' W 124°00'17211.5 350 / 201014.7 5.4 17.214.416.3
2020-Sep-19 15:00N 41°24' W 124°48'   350 / 71019.1 5.4 16.714.816.9
Track history (hours):
 
Tides and Currents Weather Stations Pressure Air Temp Water Temp Dewpoint Dewpoint Depression Visibility Wind Speed Wind Dir Waves Ship Positions

Oceanographic research ship Oceanus (USA)

Detailed information on ship capabilities available from University of Delaware's Ocean Information Center and ARCUS's ALIAS (Arctic Logistics Information and Support) project.

Owner: Oregon State University, Newport, OR. More information available from US FCC via Universal Licensing System.

Last reported at 2020-Sep-24 02:19 UTC. Time now 2020-Sep-24 08:38 UTC.
Position N 37°38' W 123°28'.

Length 54 m; draft 6.1 m.

Type: Other ship. MMSI: 367977000.

Date/timePositionNaut miles runAvg speedWind from/ knotsBaromVisibWave heightAir tempDewpointWater temp
2020-Sep-24 02:19N 37°38' W 123°28'1 0.1
2020-Sep-23 19:08N 37°38' W 123°27'0 0.1
2020-Sep-23 18:57N 37°38' W 123°27'5 1.0
2020-Sep-23 13:45N 37°36' W 123°33'0 0.0
2020-Sep-23 12:00N 37°36' W 123°33'0 0.0
2020-Sep-23 10:29N 37°36' W 123°33'18 2.1
2020-Sep-23 02:00N 37°25' W 123°15'13 4.2
2020-Sep-22 22:49N 37°32' W 123°29'3 0.5
2020-Sep-22 16:30N 37°35' W 123°27'0 0.1
2020-Sep-22 16:00N 37°35' W 123°27'0 0.1
2020-Sep-22 15:10N 37°35' W 123°27'2 0.6
2020-Sep-22 11:00N 37°37' W 123°29'0 0.1
2020-Sep-22 09:58N 37°37' W 123°29'0 0.0
2020-Sep-22 09:30N 37°37' W 123°29'1 0.8
2020-Sep-22 07:56N 37°38' W 123°28'0 0.0
2020-Sep-22 07:30N 37°38' W 123°28'0 0.1
2020-Sep-22 07:00N 37°38' W 123°28'1 0.6
2020-Sep-22 05:00N 37°38' W 123°30'0 0.3
2020-Sep-22 04:00N 37°38' W 123°30'0 0.1
2020-Sep-22 03:30N 37°38' W 123°30'2 0.5
2020-Sep-21 22:47N 37°40' W 123°31'0 0.0
2020-Sep-21 22:00N 37°40' W 123°31'0 0.1
2020-Sep-21 21:30N 37°40' W 123°31'1 0.9
2020-Sep-21 20:28N 37°41' W 123°30'1 0.2
2020-Sep-21 15:58N 37°41' W 123°31'1 0.4
2020-Sep-21 14:01N 37°41' W 123°32'1 0.3
2020-Sep-21 10:30N 37°42' W 123°31'0 0.0
2020-Sep-21 08:30N 37°42' W 123°31'2 1.9
2020-Sep-21 07:30N 37°43' W 123°33'0 0.0
2020-Sep-21 05:24N 37°43' W 123°33'2 0.5
2020-Sep-21 01:30N 37°44' W 123°35'0 0.0
2020-Sep-21 00:30N 37°44' W 123°35'1 0.2
2020-Sep-20 17:42N 37°45' W 123°35'0 0.1
2020-Sep-20 16:39N 37°45' W 123°35'12 2.0
2020-Sep-20 10:18N 37°57' W 123°41'2011.1
2020-Sep-20 08:30N 38°15' W 123°49'1610.8
2020-Sep-20 07:00N 38°31' W 123°56'1211.5
2020-Sep-20 06:00N 38°41' W 124°02'6389.5
2020-Sep-20 06:00N 38°36' W 124°00'17211.5 350 / 201014.7 5.4 17.214.416.3
2020-Sep-19 15:00N 41°24' W 124°48'   350 / 71019.1 5.4 16.714.816.9

Dump ship's entire track history